createdAt,value
2019-05-05T00:03:40.149Z,8.33
2019-05-05T00:06:30.990Z,6.20
2019-05-05T00:09:21.382Z,7.00
2019-05-05T00:12:34.335Z,5.00
2019-05-05T00:15:46.508Z,7.00
2019-05-05T00:21:21.808Z,5.00
2019-05-05T00:24:35.054Z,5.00
2019-05-05T00:28:00.362Z,5.80
2019-05-05T00:30:37.766Z,5.00
2019-05-05T00:33:40.397Z,5.00
2019-05-05T00:36:31.249Z,7.00
2019-05-05T00:39:04.331Z,5.80
2019-05-05T00:41:56.433Z,6.20
2019-05-05T00:44:28.373Z,5.00
2019-05-05T00:47:37.981Z,7.40
2019-05-05T00:53:20.616Z,5.00
2019-05-05T01:02:04.707Z,5.00
2019-05-05T01:07:48.876Z,6.20
2019-05-05T01:10:41.799Z,5.00
2019-05-05T01:13:15.873Z,7.00
2019-05-05T01:15:47.730Z,8.60
2019-05-05T01:18:20.154Z,5.00
2019-05-05T01:20:52.532Z,5.80
2019-05-05T01:23:24.468Z,6.00
2019-05-05T01:26:28.166Z,4.60
2019-05-05T01:29:00.002Z,5.00
2019-05-05T01:31:34.531Z,8.60
2019-05-05T01:37:54.823Z,5.00
2019-05-05T01:40:48.707Z,4.20
2019-05-05T01:43:20.557Z,3.80
2019-05-05T01:46:14.492Z,7.00
2019-05-05T01:49:05.334Z,6.33
2019-05-05T01:51:37.095Z,5.00
2019-05-05T01:54:08.814Z,5.00
2019-05-05T01:57:00.744Z,7.00
2019-05-05T01:59:35.343Z,5.80
2019-05-05T02:02:26.207Z,6.20
2019-05-05T02:08:08.431Z,6.60
2019-05-05T02:10:40.247Z,5.00
2019-05-05T02:13:30.849Z,8.33
2019-05-05T02:16:04.644Z,5.00
2019-05-05T02:18:54.581Z,5.00
2019-05-05T02:21:26.491Z,6.60
2019-05-05T02:24:16.530Z,7.00
2019-05-05T02:26:36.153Z,7.00
2019-05-05T02:29:45.839Z,5.80
2019-05-05T02:32:56.094Z,6.20
2019-05-05T02:35:28.408Z,5.80
2019-05-05T02:38:00.209Z,7.00
2019-05-05T02:40:35.026Z,7.00
2019-05-05T02:43:05.885Z,5.00
2019-05-05T02:49:05.576Z,7.00
2019-05-05T02:51:56.691Z,7.00
2019-05-05T02:54:27.672Z,5.67
2019-05-05T02:57:18.529Z,5.80
2019-05-05T03:02:58.896Z,9.75
2019-05-05T03:05:30.759Z,7.00
2019-05-05T03:08:04.700Z,8.20
2019-05-05T03:10:36.091Z,5.00
2019-05-05T03:13:27.133Z,7.00
2019-05-05T03:16:37.315Z,7.40
2019-05-05T03:19:18.376Z,5.80
2019-05-05T03:22:09.559Z,7.00
2019-05-05T03:24:59.485Z,8.33
2019-05-05T03:30:35.364Z,8.20
2019-05-05T03:33:25.285Z,5.40
2019-05-05T03:36:16.220Z,7.00
2019-05-05T03:39:06.739Z,7.00
2019-05-05T03:42:16.346Z,5.00
2019-05-05T03:45:07.546Z,7.40
2019-05-05T03:47:58.612Z,5.00
2019-05-05T03:53:59.456Z,6.33
2019-05-05T03:56:31.781Z,9.80
2019-05-05T03:59:04.844Z,5.40
2019-05-05T04:04:24.487Z,10.60
2019-05-05T04:07:14.123Z,11.33
2019-05-05T04:09:47.431Z,10.00
2019-05-05T04:12:34.567Z,8.33
2019-05-05T04:14:54.560Z,8.33
2019-05-05T04:17:45.587Z,7.00
2019-05-05T04:20:55.147Z,9.00
2019-05-05T04:23:27.339Z,10.50
2019-05-05T04:25:58.279Z,6.33
2019-05-05T04:28:48.279Z,7.00
2019-05-05T04:31:57.857Z,9.20
2019-05-05T04:34:29.436Z,7.00
2019-05-05T04:37:14.810Z,7.40
2019-05-05T04:39:39.615Z,7.00
2019-05-05T04:42:10.877Z,9.00
2019-05-05T04:45:04.254Z,10.20
2019-05-05T04:51:24.937Z,8.33
2019-05-05T04:54:34.409Z,7.40
2019-05-05T04:57:25.687Z,9.20
2019-05-05T04:59:56.680Z,8.33
2019-05-05T05:02:46.722Z,10.00
2019-05-05T05:05:58.023Z,10.80
2019-05-05T05:08:48.836Z,10.50
2019-05-05T05:14:36.664Z,10.80
2019-05-05T05:20:10.948Z,9.60
2019-05-05T05:22:43.984Z,10.00
2019-05-05T05:28:18.888Z,9.33
2019-05-05T05:34:54.087Z,7.60
2019-05-05T05:37:44.870Z,13.00
2019-05-05T05:47:04.578Z,9.00
2019-05-05T05:56:00.445Z,11.00
2019-05-05T05:58:33.649Z,12.33
2019-05-05T06:01:24.018Z,12.67
2019-05-05T06:03:57.146Z,12.33
2019-05-05T06:06:48.700Z,10.75
2019-05-05T06:09:58.835Z,14.00
2019-05-05T06:12:48.756Z,12.00
2019-05-05T06:15:39.940Z,12.00
2019-05-05T06:18:11.261Z,12.00
2019-05-05T06:20:44.536Z,10.25
2019-05-05T06:23:47.584Z,12.00
2019-05-05T06:26:19.466Z,10.25
2019-05-05T06:29:04.577Z,10.00
2019-05-05T06:43:54.327Z,12.25
2019-05-05T06:46:51.397Z,6.33
2019-05-05T06:49:43.781Z,5.40
2019-05-05T06:52:16.541Z,2.40
2019-05-05T06:54:48.818Z,2.00
2019-05-05T06:57:26.680Z,2.00
2019-05-05T07:03:07.660Z,4.00
2019-05-05T07:05:38.805Z,2.40
2019-05-05T07:08:54.345Z,1.80
2019-05-05T07:11:44.910Z,1.00
2019-05-05T07:14:17.215Z,3.40
2019-05-05T07:16:49.243Z,3.00
2019-05-05T07:19:40.572Z,3.00
2019-05-05T07:25:42.967Z,3.00
2019-05-05T07:31:20.330Z,3.00
2019-05-05T07:33:54.404Z,3.00
2019-05-05T07:36:50.052Z,2.60
2019-05-05T07:42:33.571Z,3.80
2019-05-05T07:45:19.379Z,2.40
2019-05-05T07:47:59.302Z,3.40
2019-05-05T07:50:32.774Z,3.20
2019-05-05T07:53:14.539Z,2.20
2019-05-05T07:55:54.158Z,1.00
2019-05-05T07:58:40.139Z,1.20
2019-05-05T08:01:19.797Z,2.40
2019-05-05T08:03:53.894Z,1.80
2019-05-05T08:12:38.456Z,2.40
2019-05-05T08:18:34.453Z,4.33
2019-05-05T08:21:25.222Z,4.00
2019-05-05T08:24:15.934Z,4.00
2019-05-05T08:30:05.278Z,2.40
2019-05-05T08:32:56.163Z,4.00
2019-05-05T08:35:27.982Z,3.80
2019-05-05T08:38:20.945Z,4.00
2019-05-05T08:40:54.365Z,2.00
2019-05-05T08:43:26.982Z,2.00
2019-05-05T08:46:14.566Z,5.00
2019-05-05T08:48:54.720Z,5.00
2019-05-05T08:51:25.627Z,5.00
2019-05-05T08:53:59.165Z,6.60
2019-05-05T08:56:50.049Z,7.00
2019-05-05T08:59:24.128Z,5.40
2019-05-05T09:02:36.159Z,6.60
2019-05-05T09:08:34.700Z,5.00
2019-05-05T09:11:09.788Z,7.40
2019-05-05T09:22:39.162Z,4.33
2019-05-05T09:25:29.039Z,6.33
2019-05-05T09:28:19.181Z,5.00
2019-05-05T09:31:10.088Z,3.60
2019-05-05T09:33:44.298Z,2.20
2019-05-05T09:42:23.626Z,4.20
2019-05-05T09:48:14.106Z,3.20
2019-05-05T09:50:51.286Z,3.60
2019-05-05T09:53:44.650Z,3.20
2019-05-05T09:56:37.812Z,1.60
2019-05-05T09:59:30.809Z,2.40
2019-05-05T10:02:04.476Z,2.00
2019-05-05T10:04:55.933Z,2.00
2019-05-05T10:07:27.729Z,2.80
2019-05-05T10:10:21.402Z,4.00
2019-05-05T10:12:56.302Z,4.00
2019-05-05T10:15:47.186Z,4.00
2019-05-05T10:18:35.479Z,4.00
2019-05-05T10:21:34.607Z,4.00
2019-05-05T10:24:30.658Z,4.00
2019-05-05T10:27:22.890Z,4.20
2019-05-05T10:30:05.097Z,2.00
2019-05-05T10:33:07.898Z,3.20
2019-05-05T10:41:53.399Z,4.00
2019-05-05T10:44:53.733Z,3.20
2019-05-05T10:47:25.356Z,2.40
2019-05-05T10:50:50.279Z,5.00
2019-05-05T10:53:29.593Z,4.67
2019-05-05T10:59:03.957Z,4.00
2019-05-05T11:01:55.531Z,2.80
2019-05-05T11:07:37.709Z,4.20
2019-05-05T11:10:09.607Z,4.00
2019-05-05T11:12:41.454Z,6.40
2019-05-05T11:15:33.600Z,5.80
2019-05-05T11:18:06.753Z,2.40
2019-05-05T11:20:57.630Z,4.00
2019-05-05T11:23:29.514Z,4.60
2019-05-05T11:26:20.501Z,3.20
2019-05-05T11:28:53.839Z,4.40
2019-05-05T11:31:54.373Z,4.00
2019-05-05T11:35:08.664Z,4.00
2019-05-05T11:37:58.611Z,4.00
2019-05-05T11:40:49.187Z,4.60
2019-05-05T11:43:44.733Z,4.00
2019-05-05T11:49:38.053Z,3.60
2019-05-05T11:52:22.023Z,4.00
2019-05-05T11:55:34.269Z,5.00
2019-05-05T11:58:25.120Z,2.80
2019-05-05T12:01:15.988Z,4.80
2019-05-05T12:04:01.137Z,3.33
2019-05-05T12:06:52.820Z,4.00
2019-05-05T12:09:46.136Z,3.60
2019-05-05T12:12:35.917Z,4.40
2019-05-05T12:18:56.584Z,3.60
2019-05-05T12:21:28.424Z,2.00
2019-05-05T12:27:36.356Z,3.20
2019-05-05T12:30:27.474Z,2.80
2019-05-05T12:40:10.330Z,4.00
2019-05-05T12:43:03.674Z,3.20
2019-05-05T12:49:07.068Z,2.80
2019-05-05T12:52:08.907Z,3.20
2019-05-05T12:54:21.899Z,3.60
2019-05-05T12:56:53.968Z,2.80
2019-05-05T12:59:59.255Z,2.40
2019-05-05T13:02:53.944Z,3.60
2019-05-05T13:08:49.976Z,2.00
2019-05-05T13:11:24.172Z,2.40
2019-05-05T13:14:04.665Z,3.60
2019-05-05T13:16:36.490Z,2.00
2019-05-05T13:25:58.527Z,3.60
2019-05-05T13:31:33.648Z,2.00
2019-05-05T13:34:43.923Z,2.60
2019-05-05T13:47:13.002Z,3.00
2019-05-05T13:50:27.802Z,2.40
2019-05-05T13:52:59.687Z,2.80
2019-05-05T13:55:50.835Z,3.00
2019-05-05T13:58:53.701Z,2.60
2019-05-05T14:04:25.007Z,4.40
2019-05-05T14:07:08.678Z,5.00
2019-05-05T14:09:32.744Z,4.00
2019-05-05T14:18:15.561Z,4.00
2019-05-05T14:21:19.795Z,4.00
2019-05-05T14:24:21.162Z,4.00
2019-05-05T14:27:32.936Z,4.40
2019-05-05T14:30:43.623Z,4.00
2019-05-05T14:33:26.216Z,5.00
2019-05-05T14:36:37.091Z,4.60
2019-05-05T14:39:30.623Z,4.00
2019-05-05T14:42:24.187Z,4.00
2019-05-05T14:48:18.763Z,6.40
2019-05-05T14:50:50.820Z,4.00
2019-05-05T15:00:18.930Z,5.00
2019-05-05T15:06:23.928Z,5.00
2019-05-05T15:09:28.460Z,6.00
2019-05-05T15:12:34.056Z,5.00
2019-05-05T15:21:26.128Z,7.00
2019-05-05T15:30:34.466Z,4.00
2019-05-05T15:37:35.342Z,3.60
2019-05-05T15:43:20.766Z,4.60
2019-05-05T15:46:24.535Z,9.00
2019-05-05T15:49:28.435Z,5.00
2019-05-05T15:55:39.802Z,2.40
2019-05-05T16:01:24.391Z,5.00
2019-05-05T16:03:56.300Z,4.00
2019-05-05T16:06:47.138Z,5.20
2019-05-05T16:09:19.284Z,4.60
2019-05-05T16:11:54.403Z,4.60
2019-05-05T16:20:44.371Z,4.40
2019-05-05T16:23:43.639Z,3.60
2019-05-05T16:26:35.266Z,3.40
2019-05-05T16:32:21.133Z,4.20
2019-05-05T16:35:19.968Z,3.00
2019-05-05T16:37:51.768Z,7.40
2019-05-05T16:40:25.791Z,3.80
2019-05-05T16:42:59.864Z,5.00
2019-05-05T16:48:34.364Z,6.00
2019-05-05T16:57:48.063Z,4.60
2019-05-05T17:03:23.988Z,4.80
2019-05-05T17:06:19.969Z,5.60
2019-05-05T17:09:24.961Z,4.20
2019-05-05T17:15:53.533Z,5.20
2019-05-05T17:18:44.793Z,4.20
2019-05-05T17:21:35.107Z,4.00
2019-05-05T17:24:38.931Z,4.00
2019-05-05T17:33:27.278Z,5.40
2019-05-05T17:36:18.099Z,5.00
2019-05-05T17:38:54.412Z,5.00
2019-05-05T17:42:04.022Z,5.80
2019-05-05T17:45:14.184Z,6.60
2019-05-05T17:48:08.445Z,5.80
2019-05-05T17:50:59.452Z,5.80
2019-05-05T17:54:00.914Z,6.33
2019-05-05T17:56:33.672Z,6.00
2019-05-05T18:02:18.531Z,4.00
2019-05-05T18:05:09.352Z,6.00
2019-05-05T18:08:02.241Z,5.20
2019-05-05T18:13:37.254Z,5.40
2019-05-05T18:16:09.511Z,4.60
2019-05-05T18:19:00.406Z,6.00
2019-05-05T18:24:38.380Z,4.60
2019-05-05T18:27:29.387Z,5.00
2019-05-05T18:33:19.963Z,6.00
2019-05-05T18:36:10.807Z,6.00
2019-05-05T18:38:44.377Z,8.00
2019-05-05T18:42:14.008Z,8.20
2019-05-05T18:45:07.147Z,4.20
2019-05-05T18:47:58.095Z,6.40
2019-05-05T18:50:50.434Z,6.67
2019-05-05T18:59:16.641Z,7.33
2019-05-05T19:05:28.387Z,7.33
2019-05-05T19:08:30.132Z,6.00
2019-05-05T19:15:05.515Z,6.00
2019-05-05T19:17:49.642Z,6.20
2019-05-05T19:26:10.274Z,7.60
2019-05-05T19:38:35.362Z,6.80
2019-05-05T19:41:47.132Z,11.00
2019-05-05T19:44:37.303Z,8.00
2019-05-05T19:47:27.320Z,9.67
2019-05-05T19:50:36.799Z,11.00
2019-05-05T19:53:49.424Z,8.60
2019-05-05T19:56:40.291Z,8.00
2019-05-05T19:59:54.321Z,7.67
2019-05-05T20:02:43.795Z,9.00
2019-05-05T20:05:54.051Z,7.33
2019-05-05T20:17:35.895Z,9.00
2019-05-05T20:20:25.981Z,8.00
2019-05-05T20:23:47.260Z,13.60
2019-05-05T20:35:49.981Z,9.40
2019-05-05T20:39:00.820Z,11.67
2019-05-05T20:41:34.332Z,8.00
2019-05-05T20:44:25.156Z,9.40
2019-05-05T20:47:08.763Z,6.80
2019-05-05T20:49:48.663Z,9.00
2019-05-05T20:52:39.236Z,8.80
2019-05-05T20:55:10.542Z,8.00
2019-05-05T20:58:01.370Z,9.80
2019-05-05T21:00:52.188Z,8.75
2019-05-05T21:04:04.746Z,9.00
2019-05-05T21:06:55.609Z,8.75
2019-05-05T21:09:46.493Z,8.80
2019-05-05T21:16:06.007Z,9.00
2019-05-05T21:18:59.318Z,10.00
2019-05-05T21:27:24.531Z,11.00
2019-05-05T21:30:41.652Z,12.67
2019-05-05T21:36:24.309Z,11.00
2019-05-05T21:38:55.216Z,11.00
2019-05-05T21:42:07.374Z,9.00
2019-05-05T21:53:47.696Z,12.00
2019-05-05T21:56:38.284Z,12.20
2019-05-05T21:59:55.606Z,13.75
2019-05-05T22:08:11.136Z,9.67
2019-05-05T22:10:45.379Z,11.00
2019-05-05T22:13:17.132Z,13.00
2019-05-05T22:25:18.911Z,11.00
2019-05-05T22:28:08.867Z,11.00
2019-05-05T22:30:55.338Z,13.00
2019-05-05T22:33:13.816Z,15.00
2019-05-05T22:38:47.383Z,11.00
2019-05-05T22:41:30.513Z,9.33
2019-05-05T22:44:21.438Z,10.40
2019-05-05T22:46:54.307Z,16.00
2019-05-05T22:49:44.449Z,13.00
2019-05-05T22:55:18.851Z,15.67
2019-05-05T22:57:51.295Z,13.00
2019-05-05T23:00:41.036Z,10.33
2019-05-05T23:03:30.236Z,10.33
2019-05-05T23:12:16.661Z,11.50
2019-05-05T23:14:47.606Z,11.67
2019-05-05T23:17:37.223Z,11.00
2019-05-05T23:20:34.136Z,13.00
2019-05-05T23:29:05.263Z,10.75
2019-05-05T23:31:36.069Z,10.67
2019-05-05T23:34:14.555Z,8.00
2019-05-05T23:39:55.075Z,9.33
2019-05-05T23:42:27.916Z,9.67
2019-05-05T23:45:01.434Z,11.33
2019-05-05T23:47:51.336Z,11.00
2019-05-05T23:53:15.277Z,9.40
2019-05-05T23:55:46.119Z,10.67
2019-05-05T23:58:17.814Z,11.00
